createdAt,value
2015-09-20T00:00:02.969Z,-1.03
2015-09-20T00:00:15.359Z,-1.01
2015-09-20T00:00:27.753Z,-0.91
2015-09-20T00:00:40.143Z,-1.04
2015-09-20T00:00:52.550Z,-0.95
2015-09-20T00:01:04.956Z,-0.99
2015-09-20T00:01:17.362Z,-0.96
2015-09-20T00:01:29.755Z,-1.04
2015-09-20T00:01:42.145Z,-0.98
2015-09-20T00:01:54.536Z,-0.96
2015-09-20T00:02:06.911Z,-1.04
2015-09-20T00:02:19.317Z,-0.98
2015-09-20T00:02:31.725Z,-0.95
2015-09-20T00:02:44.146Z,-0.91
2015-09-20T00:02:56.537Z,-1.04
2015-09-20T00:03:08.928Z,-0.98
2015-09-20T00:03:21.318Z,-0.93
2015-09-20T00:03:33.711Z,-0.98
2015-09-20T00:03:46.117Z,-0.92
2015-09-20T00:03:58.508Z,-0.92
2015-09-20T00:04:10.914Z,-0.91
2015-09-20T00:04:23.336Z,-0.96
2015-09-20T00:04:35.760Z,-0.95
2015-09-20T00:04:48.182Z,-0.92
2015-09-20T00:05:00.572Z,-0.89
2015-09-20T00:05:12.963Z,-0.92
2015-09-20T00:05:25.371Z,-0.96
2015-09-20T00:05:37.762Z,-0.96
2015-09-20T00:05:50.152Z,-0.91
2015-09-20T00:06:02.543Z,-0.93
2015-09-20T00:06:14.934Z,-0.95
2015-09-20T00:06:27.342Z,-0.95
2015-09-20T00:06:39.748Z,-0.92
2015-09-20T00:06:52.170Z,-0.92
2015-09-20T00:07:04.576Z,-0.89
2015-09-20T00:07:16.983Z,-0.93
2015-09-20T00:07:28.672Z,-0.89
2015-09-20T00:07:41.063Z,-0.85
2015-09-20T00:07:53.438Z,-0.89
2015-09-20T00:08:05.828Z,-0.89
2015-09-20T00:08:18.219Z,-0.87
2015-09-20T00:08:30.627Z,-0.84
2015-09-20T00:08:43.049Z,-0.87
2015-09-20T00:08:55.455Z,-0.91
2015-09-20T00:09:07.830Z,-0.89
2015-09-20T00:09:20.221Z,-0.87
2015-09-20T00:09:32.614Z,-0.87
2015-09-20T00:09:45.020Z,-0.84
2015-09-20T00:09:57.426Z,-0.91
2015-09-20T00:10:09.832Z,-0.87
2015-09-20T00:10:22.239Z,-0.84
2015-09-20T00:10:34.647Z,-0.89
2015-09-20T00:10:47.053Z,-0.89
2015-09-20T00:10:59.459Z,-0.91
2015-09-20T00:11:11.850Z,-0.91
2015-09-20T00:11:24.241Z,-0.87
2015-09-20T00:11:36.633Z,-0.89
2015-09-20T00:11:49.008Z,-0.87
2015-09-20T00:12:01.399Z,-0.87
2015-09-20T00:12:13.789Z,-0.89
2015-09-20T00:12:26.180Z,-0.87
2015-09-20T00:12:38.588Z,-0.89
2015-09-20T00:12:51.010Z,-0.85
2015-09-20T00:13:03.401Z,-0.92
2015-09-20T00:13:15.791Z,-0.84
2015-09-20T00:13:28.182Z,-0.89
2015-09-20T00:13:40.574Z,-0.87
2015-09-20T00:13:52.964Z,-0.92
2015-09-20T00:14:05.371Z,-0.89
2015-09-20T00:14:17.792Z,-0.92
2015-09-20T00:14:30.216Z,-0.84
2015-09-20T00:14:42.638Z,-0.87
2015-09-20T00:14:55.029Z,-0.87
2015-09-20T00:15:06.701Z,-0.85
2015-09-20T00:15:19.091Z,-0.92
2015-09-20T00:15:31.485Z,-0.87
2015-09-20T00:15:43.876Z,-0.92
2015-09-20T00:15:56.266Z,-0.84
2015-09-20T00:16:08.672Z,-0.89
2015-09-20T00:16:20.907Z,-0.84
2015-09-20T00:16:33.314Z,-0.84
2015-09-20T00:16:45.767Z,-0.85
2015-09-20T00:16:57.986Z,-0.85
2015-09-20T00:17:10.377Z,-0.91
2015-09-20T00:17:22.767Z,-0.91
2015-09-20T00:17:35.004Z,-0.93
2015-09-20T00:17:47.410Z,-0.95
2015-09-20T00:17:59.800Z,-0.95
2015-09-20T00:18:12.066Z,-0.93
2015-09-20T00:18:24.488Z,-0.96
2015-09-20T00:18:36.896Z,-0.87
2015-09-20T00:18:49.287Z,-0.92
2015-09-20T00:19:01.662Z,-0.89
2015-09-20T00:19:13.349Z,-0.87
2015-09-20T00:19:25.740Z,-0.92
2015-09-20T00:19:38.149Z,-0.84
2015-09-20T00:19:50.555Z,-0.87
2015-09-20T00:20:02.946Z,-0.91
2015-09-20T00:20:15.352Z,-0.92
2015-09-20T00:20:27.743Z,-0.89
2015-09-20T00:20:40.135Z,-0.85
2015-09-20T00:20:52.525Z,-0.89
2015-09-20T00:21:04.931Z,-0.85
2015-09-20T00:21:17.322Z,-0.87
2015-09-20T00:21:29.744Z,-0.85
2015-09-20T00:21:42.168Z,-0.82
2015-09-20T00:21:54.558Z,-0.84
2015-09-20T00:22:06.949Z,-0.87
2015-09-20T00:22:19.340Z,-0.89
2015-09-20T00:22:31.012Z,-0.8
2015-09-20T00:22:43.389Z,-0.87
2015-09-20T00:22:55.779Z,-0.87
2015-09-20T00:23:08.170Z,-0.89
2015-09-20T00:23:20.592Z,-0.89
2015-09-20T00:23:32.982Z,-0.87
2015-09-20T00:23:45.406Z,-0.89
2015-09-20T00:23:57.797Z,-0.87
2015-09-20T00:24:10.187Z,-0.85
2015-09-20T00:24:21.875Z,-0.82
2015-09-20T00:24:34.266Z,-0.87
2015-09-20T00:24:46.658Z,-0.85
2015-09-20T00:24:59.127Z,-0.89
2015-09-20T00:25:11.518Z,-0.87
2015-09-20T00:25:23.924Z,-0.93
2015-09-20T00:25:36.330Z,-0.89
2015-09-20T00:25:48.738Z,-0.87
2015-09-20T00:26:01.145Z,-0.95
2015-09-20T00:26:13.582Z,-0.87
2015-09-20T00:26:26.020Z,-0.99
2015-09-20T00:26:38.256Z,-0.91
2015-09-20T00:26:50.912Z,-0.93
2015-09-20T00:27:03.303Z,-1.03
2015-09-20T00:27:15.693Z,-1.01
2015-09-20T00:27:28.084Z,-0.95
2015-09-20T00:27:40.477Z,-0.91
2015-09-20T00:27:52.867Z,-0.95
2015-09-20T00:28:05.289Z,-0.99
2015-09-20T00:28:17.711Z,-0.95
2015-09-20T00:28:30.133Z,-0.95
2015-09-20T00:28:42.557Z,-0.95
2015-09-20T00:28:54.963Z,-0.95
2015-09-20T00:29:07.354Z,-1.07
2015-09-20T00:29:19.744Z,-1.01
2015-09-20T00:29:32.135Z,-0.96
2015-09-20T00:29:44.528Z,-0.98
2015-09-20T00:29:56.918Z,-0.92
2015-09-20T00:30:09.293Z,-1.01
2015-09-20T00:30:21.699Z,-1.01
2015-09-20T00:30:34.106Z,-0.89
2015-09-20T00:30:46.514Z,-0.93
2015-09-20T00:30:58.951Z,-0.98
2015-09-20T00:31:11.373Z,-0.96
2015-09-20T00:31:23.764Z,-0.93
2015-09-20T00:31:36.155Z,-0.99
2015-09-20T00:31:48.547Z,-0.85
2015-09-20T00:32:00.938Z,-0.87
2015-09-20T00:32:13.328Z,-0.92
2015-09-20T00:32:25.719Z,-0.93
2015-09-20T00:32:38.110Z,-0.91
2015-09-20T00:32:50.518Z,-0.93
2015-09-20T00:33:02.940Z,-0.85
2015-09-20T00:33:15.346Z,-0.85
2015-09-20T00:33:27.737Z,-0.85
2015-09-20T00:33:40.127Z,-0.87
2015-09-20T00:33:52.520Z,-0.84
2015-09-20T00:34:04.942Z,-0.85
2015-09-20T00:34:16.629Z,-0.84
2015-09-20T00:34:29.020Z,-0.84
2015-09-20T00:34:41.442Z,-0.89
2015-09-20T00:34:53.146Z,-0.87
2015-09-20T00:35:05.552Z,-0.8
2015-09-20T00:35:17.943Z,-0.89
2015-09-20T00:35:30.318Z,-0.87
2015-09-20T00:35:42.724Z,-0.85
2015-09-20T00:35:54.960Z,-0.92
2015-09-20T00:36:07.351Z,-0.91
2015-09-20T00:36:19.023Z,-0.91
2015-09-20T00:36:31.445Z,-0.85
2015-09-20T00:36:43.835Z,-0.91
2015-09-20T00:36:56.260Z,-0.85
2015-09-20T00:37:08.682Z,-0.85
2015-09-20T00:37:21.088Z,-0.85
2015-09-20T00:37:33.479Z,-0.93
2015-09-20T00:37:45.870Z,-0.85
2015-09-20T00:37:58.261Z,-0.89
2015-09-20T00:38:10.668Z,-0.87
2015-09-20T00:38:23.043Z,-0.8
2015-09-20T00:38:35.433Z,-0.92
2015-09-20T00:38:47.839Z,-0.82
2015-09-20T00:39:00.233Z,-0.85
2015-09-20T00:39:12.655Z,-0.87
2015-09-20T00:39:25.077Z,-0.79
2015-09-20T00:39:37.467Z,-0.91
2015-09-20T00:39:49.874Z,-0.91
2015-09-20T00:40:02.094Z,-0.85
2015-09-20T00:40:14.485Z,-0.92
2015-09-20T00:40:26.876Z,-0.87
2015-09-20T00:40:39.282Z,-0.85
2015-09-20T00:40:51.673Z,-0.85
2015-09-20T00:41:04.080Z,-0.89
2015-09-20T00:41:16.470Z,-0.92
2015-09-20T00:41:28.908Z,-0.89
2015-09-20T00:41:41.330Z,-0.8
2015-09-20T00:41:53.752Z,-0.87
2015-09-20T00:42:06.144Z,-0.89
2015-09-20T00:42:18.535Z,-0.77
2015-09-20T00:42:30.926Z,-0.73
2015-09-20T00:42:43.301Z,-0.77
2015-09-20T00:42:54.988Z,-0.79
2015-09-20T00:43:07.382Z,-0.85
2015-09-20T00:43:19.788Z,-0.76
2015-09-20T00:43:32.194Z,-0.82
2015-09-20T00:43:44.616Z,-0.91
2015-09-20T00:43:57.022Z,-0.76
2015-09-20T00:44:09.415Z,-0.74
2015-09-20T00:44:21.806Z,-0.73
2015-09-20T00:44:34.196Z,-0.76
2015-09-20T00:44:46.587Z,-0.87
2015-09-20T00:44:58.978Z,-0.87
2015-09-20T00:45:11.369Z,-0.84
2015-09-20T00:45:23.057Z,-0.74
2015-09-20T00:45:35.713Z,-0.91
2015-09-20T00:45:48.119Z,-0.87
2015-09-20T00:46:00.543Z,-0.76
2015-09-20T00:46:12.965Z,-0.77
2015-09-20T00:46:25.371Z,-0.8
2015-09-20T00:46:37.762Z,-0.82
2015-09-20T00:46:50.152Z,-0.89
2015-09-20T00:47:02.545Z,-0.76
2015-09-20T00:47:14.936Z,-0.82
2015-09-20T00:47:26.623Z,-0.73
2015-09-20T00:47:39.014Z,-0.85
2015-09-20T00:47:51.420Z,-0.85
2015-09-20T00:48:03.828Z,-0.91
2015-09-20T00:48:16.234Z,-0.73
2015-09-20T00:48:28.656Z,-0.74
2015-09-20T00:48:41.047Z,-0.87
2015-09-20T00:48:53.453Z,-0.73
2015-09-20T00:49:05.846Z,-0.74
2015-09-20T00:49:18.236Z,-0.77
2015-09-20T00:49:30.627Z,-0.85
2015-09-20T00:49:43.018Z,-0.74
2015-09-20T00:49:55.408Z,-0.74
2015-09-20T00:50:07.817Z,-0.76
2015-09-20T00:50:20.223Z,-0.8
2015-09-20T00:50:32.645Z,-0.72
2015-09-20T00:50:45.051Z,-0.76
2015-09-20T00:50:57.488Z,-0.77
2015-09-20T00:51:09.725Z,-0.89
2015-09-20T00:51:22.115Z,-0.73
2015-09-20T00:51:34.506Z,-0.73
2015-09-20T00:51:46.897Z,-0.85
2015-09-20T00:51:59.287Z,-0.89
2015-09-20T00:52:11.680Z,-0.76
2015-09-20T00:52:23.352Z,-0.84
2015-09-20T00:52:35.758Z,-0.87
2015-09-20T00:52:48.180Z,-0.85
2015-09-20T00:53:00.586Z,-0.79
2015-09-20T00:53:12.979Z,-0.74
2015-09-20T00:53:25.401Z,-0.8
2015-09-20T00:53:37.073Z,-0.89
2015-09-20T00:53:49.463Z,-0.74
2015-09-20T00:54:01.854Z,-0.79
2015-09-20T00:54:14.262Z,-0.74
2015-09-20T00:54:26.700Z,-0.89
2015-09-20T00:54:38.950Z,-0.89
2015-09-20T00:54:51.356Z,-0.76
2015-09-20T00:55:03.762Z,-0.82
2015-09-20T00:55:16.155Z,-0.87
2015-09-20T00:55:28.530Z,-0.74
2015-09-20T00:55:40.936Z,-0.89
2015-09-20T00:55:53.327Z,-0.85
2015-09-20T00:56:05.717Z,-0.79
2015-09-20T00:56:18.140Z,-0.74
2015-09-20T00:56:30.578Z,-0.84
2015-09-20T00:56:42.968Z,-0.85
2015-09-20T00:56:55.359Z,-0.76
2015-09-20T00:57:07.734Z,-0.77
2015-09-20T00:57:20.127Z,-0.77
2015-09-20T00:57:32.518Z,-0.74
2015-09-20T00:57:44.924Z,-0.72
2015-09-20T00:57:57.315Z,-0.73
2015-09-20T00:58:09.737Z,-0.8
2015-09-20T00:58:22.145Z,-0.73
2015-09-20T00:58:34.536Z,-0.72
2015-09-20T00:58:46.926Z,-0.74
2015-09-20T00:58:59.317Z,-0.82
2015-09-20T00:59:11.708Z,-0.79
2015-09-20T00:59:24.099Z,-0.76
2015-09-20T00:59:36.490Z,-0.79
2015-09-20T00:59:48.177Z,-0.76
2015-09-20T01:00:00.568Z,-0.76
2015-09-20T01:00:12.992Z,-0.79
2015-09-20T01:00:25.398Z,-0.77
2015-09-20T01:00:37.820Z,-0.8
2015-09-20T01:00:50.195Z,-0.73
2015-09-20T01:01:02.601Z,-0.84
2015-09-20T01:01:14.994Z,-0.73
2015-09-20T01:01:27.400Z,-0.77
2015-09-20T01:01:39.775Z,-0.84
2015-09-20T01:01:52.181Z,-0.8
2015-09-20T01:02:04.572Z,-0.91
2015-09-20T01:02:16.980Z,-0.79
2015-09-20T01:02:29.433Z,-0.79
2015-09-20T01:02:41.840Z,-0.87
2015-09-20T01:02:54.261Z,-0.87
2015-09-20T01:03:06.652Z,-0.87
2015-09-20T01:03:19.045Z,-0.85
2015-09-20T01:03:31.295Z,-0.87
2015-09-20T01:03:43.529Z,-0.85
2015-09-20T01:03:55.920Z,-0.84
2015-09-20T01:04:08.310Z,-0.84
2015-09-20T01:04:20.719Z,-0.91
2015-09-20T01:04:33.125Z,-1.01
2015-09-20T01:04:45.515Z,-0.91
2015-09-20T01:04:57.937Z,-0.95
2015-09-20T01:05:10.344Z,-0.99
2015-09-20T01:05:22.721Z,-0.95
2015-09-20T01:05:35.127Z,-0.91
2015-09-20T01:05:47.517Z,-0.91
2015-09-20T01:05:59.892Z,-0.87
2015-09-20T01:06:12.267Z,-0.91
2015-09-20T01:06:24.660Z,-0.85
2015-09-20T01:06:37.051Z,-0.91
2015-09-20T01:06:49.457Z,-0.95
2015-09-20T01:07:01.879Z,-0.95
2015-09-20T01:07:14.285Z,-0.95
2015-09-20T01:07:26.662Z,-0.91
2015-09-20T01:07:39.053Z,-0.93
2015-09-20T01:07:51.443Z,-0.99
2015-09-20T01:08:03.834Z,-1.01
2015-09-20T01:08:16.225Z,-0.96
2015-09-20T01:08:28.633Z,-0.96
2015-09-20T01:08:41.023Z,-0.91
2015-09-20T01:08:53.430Z,-0.92
2015-09-20T01:09:05.852Z,-1.01
2015-09-20T01:09:18.258Z,-0.92
2015-09-20T01:09:30.696Z,-0.96
2015-09-20T01:09:42.931Z,-0.91
2015-09-20T01:09:55.306Z,-0.93
2015-09-20T01:10:07.712Z,-0.84
2015-09-20T01:10:20.120Z,-0.87
2015-09-20T01:10:32.495Z,-0.92
2015-09-20T01:10:44.886Z,-0.87
2015-09-20T01:10:57.276Z,-0.89
2015-09-20T01:11:09.683Z,-0.85
2015-09-20T01:11:22.076Z,-0.91
2015-09-20T01:11:34.514Z,-0.89
2015-09-20T01:11:46.951Z,-0.89
2015-09-20T01:11:59.358Z,-0.95
2015-09-20T01:12:11.748Z,-0.85
2015-09-20T01:12:24.141Z,-0.84
2015-09-20T01:12:36.531Z,-0.87
2015-09-20T01:12:48.922Z,-0.91
2015-09-20T01:13:01.313Z,-0.85
2015-09-20T01:13:13.719Z,-0.85
2015-09-20T01:13:26.126Z,-0.85
2015-09-20T01:13:38.548Z,-0.84
2015-09-20T01:13:50.970Z,-0.84
2015-09-20T01:14:03.407Z,-0.85
2015-09-20T01:14:15.798Z,-0.85
2015-09-20T01:14:28.191Z,-0.82
2015-09-20T01:14:40.581Z,-0.87
2015-09-20T01:14:52.972Z,-0.82
2015-09-20T01:15:05.347Z,-0.87
2015-09-20T01:15:17.753Z,-0.87
2015-09-20T01:15:30.146Z,-0.91
2015-09-20T01:15:42.552Z,-0.77
2015-09-20T01:15:54.990Z,-0.89
2015-09-20T01:16:07.411Z,-0.98
2015-09-20T01:16:19.818Z,-0.87
2015-09-20T01:16:32.211Z,-0.93
2015-09-20T01:16:44.618Z,-0.84
2015-09-20T01:16:56.993Z,-0.91
2015-09-20T01:17:09.399Z,-0.92
2015-09-20T01:17:21.789Z,-0.91
2015-09-20T01:17:34.181Z,-0.87
2015-09-20T01:17:46.603Z,-0.95
2015-09-20T01:17:59.025Z,-0.87
2015-09-20T01:18:11.447Z,-1.01
2015-09-20T01:18:23.869Z,-0.93
2015-09-20T01:18:36.292Z,-0.95
2015-09-20T01:18:48.667Z,-0.92
2015-09-20T01:19:01.058Z,-0.98
2015-09-20T01:19:13.449Z,-0.89
2015-09-20T01:19:25.839Z,-0.89
2015-09-20T01:19:38.060Z,-0.92
2015-09-20T01:19:50.451Z,-1.01
2015-09-20T01:20:02.841Z,-0.95
2015-09-20T01:20:15.232Z,-0.93
2015-09-20T01:20:27.638Z,-0.95
2015-09-20T01:20:40.063Z,-1.04
2015-09-20T01:20:52.501Z,-0.93
2015-09-20T01:21:04.891Z,-0.91
2015-09-20T01:21:17.282Z,-0.92
2015-09-20T01:21:29.690Z,-1.06
2015-09-20T01:21:42.081Z,-0.91
2015-09-20T01:21:54.487Z,-1.03
2015-09-20T01:22:06.878Z,-0.93
2015-09-20T01:22:19.268Z,-0.95
2015-09-20T01:22:31.675Z,-0.95
2015-09-20T01:22:44.097Z,-0.99
2015-09-20T01:22:56.488Z,-0.92
2015-09-20T01:23:08.863Z,-0.95
2015-09-20T01:23:21.254Z,-0.91
2015-09-20T01:23:33.646Z,-1.03
2015-09-20T01:23:46.052Z,-0.89
2015-09-20T01:23:58.443Z,-0.95
2015-09-20T01:24:10.849Z,-0.95
2015-09-20T01:24:23.271Z,-0.96
2015-09-20T01:24:35.679Z,-1.01
2015-09-20T01:24:48.070Z,-0.95
2015-09-20T01:25:00.461Z,-0.91
2015-09-20T01:25:12.836Z,-0.87
2015-09-20T01:25:25.242Z,-0.96
2015-09-20T01:25:37.619Z,-0.93
2015-09-20T01:25:49.306Z,-0.95
2015-09-20T01:26:01.728Z,-0.92
2015-09-20T01:26:14.119Z,-0.93
2015-09-20T01:26:26.541Z,-0.96
2015-09-20T01:26:38.949Z,-0.91
2015-09-20T01:26:51.340Z,-0.96
2015-09-20T01:27:03.746Z,-0.91
2015-09-20T01:27:16.137Z,-0.95
2015-09-20T01:27:28.527Z,-0.98
2015-09-20T01:27:40.935Z,-0.95
2015-09-20T01:27:53.326Z,-0.91
2015-09-20T01:28:05.748Z,-1.03
2015-09-20T01:28:18.139Z,-0.99
2015-09-20T01:28:30.560Z,-0.92
2015-09-20T01:28:42.969Z,-0.91
2015-09-20T01:28:55.359Z,-0.89
2015-09-20T01:29:07.750Z,-0.98
2015-09-20T01:29:20.141Z,-0.92
2015-09-20T01:29:32.531Z,-1.01
2015-09-20T01:29:44.924Z,-0.95
2015-09-20T01:29:57.314Z,-0.87
2015-09-20T01:30:09.721Z,-0.99
2015-09-20T01:30:22.127Z,-0.98
2015-09-20T01:30:34.533Z,-0.87
2015-09-20T01:30:46.957Z,-0.95
2015-09-20T01:30:59.379Z,-0.93
2015-09-20T01:31:11.770Z,-0.91
2015-09-20T01:31:24.160Z,-0.91
2015-09-20T01:31:36.551Z,-0.89
2015-09-20T01:31:48.240Z,-0.84
2015-09-20T01:32:00.631Z,-0.98
2015-09-20T01:32:13.037Z,-0.95
2015-09-20T01:32:25.459Z,-0.92
2015-09-20T01:32:37.881Z,-0.92
2015-09-20T01:32:50.274Z,-0.91
2015-09-20T01:33:02.664Z,-0.95
2015-09-20T01:33:15.055Z,-0.98
2015-09-20T01:33:27.461Z,-0.99
2015-09-20T01:33:39.852Z,-0.89
2015-09-20T01:33:52.228Z,-0.93
2015-09-20T01:34:04.634Z,-0.92
2015-09-20T01:34:17.040Z,-0.93
2015-09-20T01:34:29.431Z,-0.95
2015-09-20T01:34:41.840Z,-0.87
2015-09-20T01:34:54.262Z,-0.91
2015-09-20T01:35:06.668Z,-0.99
2015-09-20T01:35:19.059Z,-0.92
2015-09-20T01:35:30.731Z,-0.93
2015-09-20T01:35:43.122Z,-0.93
2015-09-20T01:35:55.513Z,-0.96
2015-09-20T01:36:07.904Z,-0.92
2015-09-20T01:36:20.310Z,-0.92
2015-09-20T01:36:32.716Z,-0.93
2015-09-20T01:36:45.124Z,-0.87
2015-09-20T01:36:57.531Z,-0.92
2015-09-20T01:37:09.937Z,-0.96
2015-09-20T01:37:22.374Z,-1.03
2015-09-20T01:37:34.796Z,-0.95
2015-09-20T01:37:47.189Z,-0.93
2015-09-20T01:37:59.595Z,-0.98
2015-09-20T01:38:11.986Z,-0.93
2015-09-20T01:38:24.361Z,-0.91
2015-09-20T01:38:36.751Z,-0.96
2015-09-20T01:38:49.145Z,-1.01
2015-09-20T01:39:01.567Z,-0.89
2015-09-20T01:39:13.957Z,-0.93
2015-09-20T01:39:26.364Z,-1.06
2015-09-20T01:39:38.786Z,-0.89
2015-09-20T01:39:51.178Z,-0.93
2015-09-20T01:40:03.569Z,-1.04
2015-09-20T01:40:15.959Z,-0.96
2015-09-20T01:40:28.350Z,-0.92
2015-09-20T01:40:40.741Z,-1.06
2015-09-20T01:40:53.133Z,-0.93
2015-09-20T01:41:05.540Z,-0.91
2015-09-20T01:41:17.930Z,-0.96
2015-09-20T01:41:30.352Z,-0.93
2015-09-20T01:41:42.618Z,-0.95
2015-09-20T01:41:55.041Z,-0.93
2015-09-20T01:42:07.447Z,-0.99
2015-09-20T01:42:19.837Z,-0.89
2015-09-20T01:42:32.228Z,-0.93
2015-09-20T01:42:43.916Z,-0.91
2015-09-20T01:42:56.324Z,-0.98
2015-09-20T01:43:08.714Z,-1.01
2015-09-20T01:43:21.121Z,-1.07
2015-09-20T01:43:33.511Z,-0.95
2015-09-20T01:43:45.902Z,-0.96
2015-09-20T01:43:58.326Z,-0.98
2015-09-20T01:44:10.748Z,-1.04
2015-09-20T01:44:23.154Z,-0.99
2015-09-20T01:44:35.560Z,-0.99
2015-09-20T01:44:47.951Z,-0.95
2015-09-20T01:45:00.343Z,-0.92
2015-09-20T01:45:12.750Z,-1.01
2015-09-20T01:45:25.140Z,-0.93
2015-09-20T01:45:37.531Z,-0.92
2015-09-20T01:45:49.937Z,-0.92
2015-09-20T01:46:02.331Z,-0.92
2015-09-20T01:46:14.753Z,-0.93
2015-09-20T01:46:27.175Z,-1.03
2015-09-20T01:46:39.596Z,-0.92
2015-09-20T01:46:51.971Z,-0.91
2015-09-20T01:47:04.363Z,-0.92
2015-09-20T01:47:16.754Z,-0.95
2015-09-20T01:47:29.144Z,-0.99
2015-09-20T01:47:41.551Z,-0.98
2015-09-20T01:47:53.941Z,-1.07
2015-09-20T01:48:06.349Z,-0.95
2015-09-20T01:48:18.037Z,-0.99
2015-09-20T01:48:30.459Z,-0.93
2015-09-20T01:48:42.881Z,-0.92
2015-09-20T01:48:55.305Z,-1.09
2015-09-20T01:49:07.695Z,-0.98
2015-09-20T01:49:20.101Z,-0.93
2015-09-20T01:49:32.508Z,-0.93
2015-09-20T01:49:44.883Z,-1.03
2015-09-20T01:49:57.291Z,-0.99
2015-09-20T01:50:09.682Z,-0.93
2015-09-20T01:50:22.072Z,-1.03
2015-09-20T01:50:34.463Z,-1.01
2015-09-20T01:50:46.869Z,-0.96
2015-09-20T01:50:59.292Z,-1.01
2015-09-20T01:51:11.698Z,-0.98
2015-09-20T01:51:24.089Z,-0.98
2015-09-20T01:51:36.495Z,-1.06
2015-09-20T01:51:48.886Z,-1.13
2015-09-20T01:52:01.264Z,-1.06
2015-09-20T01:52:13.686Z,-1.1
2015-09-20T01:52:26.076Z,-0.99
2015-09-20T01:52:38.467Z,-1.1
2015-09-20T01:52:50.873Z,-0.96
2015-09-20T01:53:03.296Z,-0.99
2015-09-20T01:53:15.718Z,-1.04
2015-09-20T01:53:28.108Z,-1.11
2015-09-20T01:53:40.499Z,-1.13
2015-09-20T01:53:52.890Z,-1.06
2015-09-20T01:54:05.298Z,-1.04
2015-09-20T01:54:17.673Z,-1.13
2015-09-20T01:54:30.079Z,-0.99
2015-09-20T01:54:42.454Z,-1.13
2015-09-20T01:54:54.845Z,-1.01
2015-09-20T01:55:07.254Z,-1.09
2015-09-20T01:55:19.676Z,-1.13
2015-09-20T01:55:32.098Z,-1.13
2015-09-20T01:55:44.520Z,-1.01
2015-09-20T01:55:56.910Z,-1.1
2015-09-20T01:56:09.303Z,-1.14
2015-09-20T01:56:21.709Z,-1.09
2015-09-20T01:56:34.100Z,-1.13
2015-09-20T01:56:46.475Z,-1.13
2015-09-20T01:56:58.865Z,-1.06
2015-09-20T01:57:11.257Z,-1.01
2015-09-20T01:57:23.663Z,-0.99
2015-09-20T01:57:36.085Z,-1.11
2015-09-20T01:57:48.491Z,-1.06
2015-09-20T01:58:00.882Z,-1.01
2015-09-20T01:58:13.275Z,-0.99
2015-09-20T01:58:25.665Z,-1.1
2015-09-20T01:58:38.056Z,-1.1
2015-09-20T01:58:50.462Z,-1.11
2015-09-20T01:59:02.871Z,-1.14
2015-09-20T01:59:15.293Z,-1.07
2015-09-20T01:59:27.700Z,-1.03
2015-09-20T01:59:40.121Z,-1.01
2015-09-20T01:59:52.512Z,-1.11
2015-09-20T02:00:04.904Z,-1.03
2015-09-20T02:00:17.310Z,-1.06
2015-09-20T02:00:29.701Z,-1.06
2015-09-20T02:00:42.091Z,-1.09
2015-09-20T02:00:54.482Z,-1.04
2015-09-20T02:01:06.890Z,-0.96
2015-09-20T02:01:19.296Z,-0.99
2015-09-20T02:01:31.703Z,-0.95
2015-09-20T02:01:44.109Z,-1.07
2015-09-20T02:01:56.531Z,-1.03
2015-09-20T02:02:08.956Z,-1.09
2015-09-20T02:02:21.346Z,-1.1
2015-09-20T02:02:33.737Z,-1.06
2015-09-20T02:02:45.409Z,-1.04
2015-09-20T02:02:57.815Z,-1.03
2015-09-20T02:03:10.222Z,-0.99
2015-09-20T02:03:22.613Z,-0.99
2015-09-20T02:03:35.003Z,-1.03
2015-09-20T02:03:47.425Z,-1.07
2015-09-20T02:03:59.832Z,-0.99
2015-09-20T02:04:11.537Z,-0.95
2015-09-20T02:04:23.224Z,-1.07
2015-09-20T02:04:35.646Z,-1.01
2015-09-20T02:04:48.021Z,-1.06
2015-09-20T02:05:00.412Z,-1.09
2015-09-20T02:05:12.820Z,-0.99
2015-09-20T02:05:25.211Z,-0.99
2015-09-20T02:05:37.601Z,-1.04
2015-09-20T02:05:49.992Z,-1.06
2015-09-20T02:06:02.398Z,-1.11
2015-09-20T02:06:14.807Z,-1.07
2015-09-20T02:06:27.073Z,-1.1
2015-09-20T02:06:39.495Z,-1.11
2015-09-20T02:06:51.885Z,-1.04
2015-09-20T02:07:04.276Z,-1.1
2015-09-20T02:07:16.668Z,-1.09
2015-09-20T02:07:29.074Z,-1.03
2015-09-20T02:07:41.449Z,-1.09
2015-09-20T02:07:53.840Z,-1.1
2015-09-20T02:08:06.230Z,-1.1
2015-09-20T02:08:18.623Z,-1.11
2015-09-20T02:08:31.029Z,-1.11
2015-09-20T02:08:43.435Z,-1.09
2015-09-20T02:08:55.857Z,-1.16
2015-09-20T02:09:08.232Z,-1.1
2015-09-20T02:09:20.640Z,-1.11
2015-09-20T02:09:33.015Z,-1.11
2015-09-20T02:09:45.406Z,-1.13
2015-09-20T02:09:57.094Z,-1.13
2015-09-20T02:10:09.469Z,-1.14
2015-09-20T02:10:21.877Z,-1.14
2015-09-20T02:10:34.283Z,-1.13
2015-09-20T02:10:45.971Z,-1.14
2015-09-20T02:10:58.377Z,-1.13
2015-09-20T02:11:10.799Z,-1.17
2015-09-20T02:11:23.222Z,-1.16
2015-09-20T02:11:35.612Z,-1.17
2015-09-20T02:11:48.018Z,-1.24
2015-09-20T02:12:00.409Z,-1.14
2015-09-20T02:12:12.800Z,-1.17
2015-09-20T02:12:25.209Z,-1.17
2015-09-20T02:12:37.615Z,-1.3
2015-09-20T02:12:50.021Z,-1.17
2015-09-20T02:13:02.256Z,-1.21
2015-09-20T02:13:14.662Z,-1.22
2015-09-20T02:13:27.085Z,-1.19
2015-09-20T02:13:39.507Z,-1.17
2015-09-20T02:13:51.897Z,-1.24
2015-09-20T02:14:04.288Z,-1.17
2015-09-20T02:14:16.666Z,-1.3
2015-09-20T02:14:29.057Z,-1.21
2015-09-20T02:14:41.432Z,-1.11
2015-09-20T02:14:53.822Z,-1.21
2015-09-20T02:15:06.229Z,-1.11
2015-09-20T02:15:18.620Z,-1.21
2015-09-20T02:15:31.042Z,-1.16
2015-09-20T02:15:43.480Z,-1.13
2015-09-20T02:15:55.870Z,-1.22
2015-09-20T02:16:08.261Z,-1.1
2015-09-20T02:16:20.654Z,-1.21
2015-09-20T02:16:32.342Z,-1.17
2015-09-20T02:16:44.733Z,-1.16
2015-09-20T02:16:57.123Z,-1.19
2015-09-20T02:17:09.514Z,-1.24
2015-09-20T02:17:21.906Z,-1.22
2015-09-20T02:17:34.328Z,-1.17
2015-09-20T02:17:46.750Z,-1.17
2015-09-20T02:17:59.156Z,-1.14
2015-09-20T02:18:11.547Z,-1.17
2015-09-20T02:18:23.939Z,-1.1
2015-09-20T02:18:36.345Z,-1.17
2015-09-20T02:18:48.720Z,-1.16
2015-09-20T02:19:01.126Z,-1.11
2015-09-20T02:19:13.517Z,-1.17
2015-09-20T02:19:25.909Z,-1.13
2015-09-20T02:19:38.331Z,-1.14
2015-09-20T02:19:50.722Z,-1.19
2015-09-20T02:20:03.159Z,-1.16
2015-09-20T02:20:15.581Z,-1.17
2015-09-20T02:20:27.974Z,-1.1
2015-09-20T02:20:40.365Z,-1.16
2015-09-20T02:20:52.740Z,-1.17
2015-09-20T02:21:05.130Z,-1.19
2015-09-20T02:21:17.505Z,-1.14
2015-09-20T02:21:29.898Z,-1.17
2015-09-20T02:21:42.288Z,-1.14
2015-09-20T02:21:54.695Z,-1.16
2015-09-20T02:22:07.101Z,-1.13
2015-09-20T02:22:19.523Z,-1.14
2015-09-20T02:22:31.948Z,-1.17
2015-09-20T02:22:44.338Z,-1.17
2015-09-20T02:22:56.729Z,-1.16
2015-09-20T02:23:09.120Z,-1.14
2015-09-20T02:23:21.510Z,-1.17
2015-09-20T02:23:33.199Z,-1.17
2015-09-20T02:23:45.589Z,-1.11
2015-09-20T02:23:57.980Z,-1.16
2015-09-20T02:24:10.371Z,-1.16
2015-09-20T02:24:22.777Z,-1.1
2015-09-20T02:24:35.185Z,-1.21
2015-09-20T02:24:47.591Z,-1.21
2015-09-20T02:24:59.982Z,-1.19
2015-09-20T02:25:12.388Z,-1.17
2015-09-20T02:25:24.779Z,-1.21
2015-09-20T02:25:37.171Z,-1.17
2015-09-20T02:25:49.578Z,-1.17
2015-09-20T02:26:01.984Z,-1.14
2015-09-20T02:26:14.406Z,-1.22
2015-09-20T02:26:26.812Z,-1.14
2015-09-20T02:26:39.237Z,-1.19
2015-09-20T02:26:51.471Z,-1.14
2015-09-20T02:27:03.862Z,-1.16
2015-09-20T02:27:16.253Z,-1.24
2015-09-20T02:27:28.643Z,-1.14
2015-09-20T02:27:41.066Z,-1.13
2015-09-20T02:27:53.472Z,-1.16
2015-09-20T02:28:05.894Z,-1.16
2015-09-20T02:28:18.316Z,-1.17
2015-09-20T02:28:30.707Z,-1.13
2015-09-20T02:28:43.099Z,-1.17
2015-09-20T02:28:55.506Z,-1.16
2015-09-20T02:29:07.943Z,-1.17
2015-09-20T02:29:20.334Z,-1.11
2015-09-20T02:29:32.022Z,-1.16
2015-09-20T02:29:44.428Z,-1.11
2015-09-20T02:29:56.819Z,-1.16
2015-09-20T02:30:09.225Z,-1.19
2015-09-20T02:30:21.647Z,-1.1
2015-09-20T02:30:34.041Z,-1.1
2015-09-20T02:30:46.431Z,-1.14
2015-09-20T02:30:58.822Z,-1.16
2015-09-20T02:31:11.213Z,-1.1
2015-09-20T02:31:23.603Z,-1.14
2015-09-20T02:31:35.996Z,-1.11
2015-09-20T02:31:48.387Z,-1.1
2015-09-20T02:32:00.793Z,-1.07
2015-09-20T02:32:13.199Z,-1.11
2015-09-20T02:32:25.621Z,-1.06
2015-09-20T02:32:38.045Z,-1.04
2015-09-20T02:32:50.467Z,-0.96
2015-09-20T02:33:02.873Z,-1.04
2015-09-20T02:33:15.248Z,-1.11
2015-09-20T02:33:27.654Z,-1.13
2015-09-20T02:33:40.047Z,-1.01
2015-09-20T02:33:52.437Z,-0.95
2015-09-20T02:34:04.828Z,-0.99
2015-09-20T02:34:17.203Z,-1.01
2015-09-20T02:34:29.594Z,-1.01
2015-09-20T02:34:42.001Z,-1.1
2015-09-20T02:34:54.407Z,-1.14
2015-09-20T02:35:06.813Z,-1.1
2015-09-20T02:35:19.204Z,-1.06
2015-09-20T02:35:31.595Z,-1.09
2015-09-20T02:35:44.004Z,-0.98
2015-09-20T02:35:56.395Z,-1.03
2015-09-20T02:36:08.785Z,-1.1
2015-09-20T02:36:21.191Z,-1.03
2015-09-20T02:36:33.613Z,-1.13
2015-09-20T02:36:46.052Z,-1.09
2015-09-20T02:36:58.489Z,-1.06
2015-09-20T02:37:10.708Z,-1.03
2015-09-20T02:37:23.099Z,-1.07
2015-09-20T02:37:35.489Z,-0.96
2015-09-20T02:37:47.882Z,-1.11
2015-09-20T02:38:00.304Z,-1.09
2015-09-20T02:38:12.694Z,-1.07
2015-09-20T02:38:25.116Z,-1.04
2015-09-20T02:38:37.538Z,-0.98
2015-09-20T02:38:49.978Z,-1.03
2015-09-20T02:39:02.353Z,-1.06
2015-09-20T02:39:14.759Z,-0.98
2015-09-20T02:39:27.165Z,-0.98